LIBQ  Monte Scuro Airport

Add Bookmark

Italy

Status
Operational
Latitude Longitude
39° 19' 12" N 16° 22' 47" E
39.320000 16.380000
Local (DST + 2) UTC (GMT + 1)
Oct 25, 2014 04:45 Oct 25, 2014 02:45
Sunrise-Sunset Local UTC
Begin Civil Twilight 06:46 04:46
Sunrise 07:13 05:13
Sunset 06:03 16:03
End Civil Twilight 06:30 16:30

Current Weather

METAR Observed VFR
LIBQ 250155Z 22010KT CAVOK 02/M02 Q1011 Sat, Oct 25, 2014 @ 01:55 UTC
(50 Minutes ago)
Visual Flight Rules
Wind Visibility Clouds Conditions
220° at 10 knots (19 kph) 10 km or more
  • Clear skies
  • No significant weather
Temperatures Readings Precipitation
Current Temp 2°C (36°F)
Dewpoint -2°C (28°F)
Humidity 75%
Altimeter 29.85"Hg
Sea Level Pressure 1011mb
Field Elevation 5643.04'
None Recorded

Additional weather within a 92.6km radius of LIBQ

Map ICAO Location
LICA 47.6km S (195°)
LIBC 70.2km E (121°)

24 Hour Weather History

Loading
-

24 Hour Weather Graphs

Loading
-

CheckWX.com is intended as a tool to help pilots better visualize weather data. It is not intended as a substitute for an official weather briefing obtained from a Flight Service Station. CheckWX.com does not meet the FAA requirements for an official pre-flight weather briefing. Therefore, it's important that pilots still call and obtain an official FSS pre-flight weather briefing.